Time;durP1;ratioP1;P1;durP2;ratioP2;P2;SDS_P1;SDS_P2;PMS_P1;PMS_P2;Temp;Humidity;BMP_temperature;BMP_pressure;BME280_temperature;BME280_humidity;BME280_pressure;Samples;Min_cycle;Max_cycle;Signal;HPM_P1;HPM_P2
2020/12/26 00:01:42;;;;;;;6.35;4.58;;;-0.30;99.90;;;;;;1904882;74;21155;-75
2020/12/26 00:04:08;;;;;;;5.83;4.40;;;-0.30;99.90;;;;;;1906293;74;21073;-74
2020/12/26 00:06:35;;;;;;;9.48;5.05;;;-0.30;99.90;;;;;;1910230;74;21563;-75
2020/12/26 00:09:01;;;;;;;7.17;5.03;;;-0.30;99.90;;;;;;1912877;74;21084;-74
2020/12/26 00:11:27;;;;;;;12.40;4.87;;;-0.30;99.90;;;;;;1902656;74;21074;-74
2020/12/26 00:13:53;;;;;;;7.62;4.60;;;-0.30;99.90;;;;;;1899269;74;21081;-74
2020/12/26 00:16:19;;;;;;;8.83;5.33;;;-0.30;99.90;;;;;;1912454;74;21127;-74
2020/12/26 00:18:45;;;;;;;7.65;4.50;;;-0.30;99.90;;;;;;1913551;74;21055;-75
2020/12/26 00:21:11;;;;;;;7.53;5.17;;;-0.30;99.90;;;;;;1906663;75;21160;-74
2020/12/26 00:23:38;;;;;;;6.80;4.87;;;-0.20;99.90;;;;;;1914740;74;21074;-75
2020/12/26 00:26:04;;;;;;;7.45;4.83;;;-0.20;99.90;;;;;;1904909;74;21180;-74
2020/12/26 00:28:30;;;;;;;9.98;5.50;;;-0.10;99.90;;;;;;1913066;74;21220;-75
2020/12/26 00:30:56;;;;;;;7.60;4.92;;;-0.20;99.90;;;;;;1902092;74;21190;-75
2020/12/26 00:33:22;;;;;;;10.82;5.25;;;-0.30;99.90;;;;;;1923977;73;21167;-75
2020/12/26 00:35:48;;;;;;;11.03;4.95;;;-0.30;99.90;;;;;;1930889;73;21073;-75
2020/12/26 00:38:14;;;;;;;8.15;5.10;;;-0.30;99.90;;;;;;1929060;74;21458;-75
2020/12/26 00:40:40;;;;;;;10.00;5.60;;;-0.30;99.90;;;;;;1928867;73;21543;-76
2020/12/26 00:43:07;;;;;;;7.75;4.80;;;-0.30;99.90;;;;;;1902289;74;21489;-75
2020/12/26 00:45:33;;;;;;;6.80;4.92;;;-0.30;99.90;;;;;;1913921;74;21481;-76
2020/12/26 00:47:59;;;;;;;5.25;4.10;;;-0.30;99.90;;;;;;1903080;74;21077;-74
2020/12/26 00:50:25;;;;;;;5.78;4.20;;;-0.20;99.90;;;;;;1886803;74;21074;-75
2020/12/26 00:52:51;;;;;;;8.63;4.70;;;-0.30;99.90;;;;;;1897498;74;21043;-75
2020/12/26 00:55:18;;;;;;;6.33;4.47;;;-0.40;99.90;;;;;;1892700;74;21141;-75
2020/12/26 00:57:44;;;;;;;6.92;4.28;;;-0.40;99.90;;;;;;1895666;74;21137;-75
2020/12/26 01:00:10;;;;;;;5.65;3.72;;;-0.50;99.90;;;;;;1891412;74;21143;-75
2020/12/26 01:02:36;;;;;;;7.00;5.30;;;-0.50;99.90;;;;;;1884245;74;21105;-74
2020/12/26 01:05:02;;;;;;;6.15;4.30;;;-0.50;99.90;;;;;;1901348;74;21080;-76
2020/12/26 01:07:28;;;;;;;12.50;4.47;;;-0.50;99.90;;;;;;1911496;74;21136;-74
2020/12/26 01:09:54;;;;;;;9.60;4.75;;;-0.50;99.90;;;;;;1922308;73;21062;-74
2020/12/26 01:12:21;;;;;;;7.03;4.58;;;-0.60;99.90;;;;;;1929535;73;21070;-75
2020/12/26 01:14:47;;;;;;;8.05;5.00;;;-0.60;99.90;;;;;;1922648;73;21070;-74
2020/12/26 01:17:13;;;;;;;6.83;5.10;;;-0.50;99.90;;;;;;1915038;73;21051;-74
2020/12/26 01:19:39;;;;;;;7.65;4.83;;;-0.50;99.90;;;;;;1883923;75;21137;-74
2020/12/26 01:22:05;;;;;;;7.58;4.75;;;-0.60;99.90;;;;;;1922430;74;21074;-73
2020/12/26 01:24:31;;;;;;;10.88;4.87;;;-0.60;99.90;;;;;;1918905;74;21058;-74
2020/12/26 01:26:57;;;;;;;9.28;4.90;;;-0.50;99.90;;;;;;1924228;73;21044;-75
2020/12/26 01:29:23;;;;;;;8.25;4.70;;;-0.50;99.90;;;;;;1891044;74;21148;-73
2020/12/26 01:31:50;;;;;;;7.60;4.47;;;-0.40;99.90;;;;;;1916191;73;21192;-75
2020/12/26 01:34:16;;;;;;;12.05;4.28;;;-0.40;99.90;;;;;;1918526;72;21174;-75
2020/12/26 01:36:42;;;;;;;7.10;4.30;;;-0.50;99.90;;;;;;1883546;74;21082;-75
2020/12/26 01:39:08;;;;;;;8.65;4.85;;;-0.40;99.90;;;;;;1916165;73;21483;-74
2020/12/26 01:41:34;;;;;;;9.25;4.67;;;-0.40;99.90;;;;;;1925311;73;21475;-75
2020/12/26 01:44:00;;;;;;;5.22;3.90;;;-0.40;99.90;;;;;;1937019;73;21677;-75
2020/12/26 01:46:26;;;;;;;6.53;4.50;;;-0.40;99.90;;;;;;1885991;75;21632;-75
2020/12/26 01:48:52;;;;;;;8.60;4.42;;;-0.50;99.90;;;;;;1916255;74;21039;-74
2020/12/26 01:51:18;;;;;;;5.80;3.87;;;-0.60;99.90;;;;;;1894910;74;21077;-74
2020/12/26 01:53:45;;;;;;;5.90;4.25;;;-0.50;99.90;;;;;;1897313;73;21071;-75
2020/12/26 01:56:11;;;;;;;5.45;4.12;;;-0.50;99.90;;;;;;1897521;74;21074;-75
2020/12/26 01:58:37;;;;;;;9.73;4.75;;;-0.50;99.90;;;;;;1879774;75;21043;-74
2020/12/26 02:01:03;;;;;;;12.37;3.80;;;-0.70;99.90;;;;;;1884478;74;21047;-74
2020/12/26 02:03:29;;;;;;;9.10;4.83;;;-0.70;99.90;;;;;;1900203;75;21066;-74
2020/12/26 02:05:55;;;;;;;6.87;3.75;;;-0.80;99.90;;;;;;1936711;72;21147;-74
2020/12/26 02:08:21;;;;;;;9.75;4.10;;;-0.90;99.90;;;;;;1923467;73;21083;-74
2020/12/26 02:10:48;;;;;;;10.78;4.33;;;-0.80;99.90;;;;;;1921460;74;21043;-75
2020/12/26 02:13:14;;;;;;;6.45;4.37;;;-0.80;99.90;;;;;;1933349;74;21474;-75
2020/12/26 02:15:40;;;;;;;10.23;4.55;;;-0.80;99.90;;;;;;1899273;74;21560;-74
2020/12/26 02:18:06;;;;;;;7.47;4.33;;;-0.60;99.90;;;;;;1927420;72;21541;-74
2020/12/26 02:20:32;;;;;;;5.67;4.15;;;-0.60;99.90;;;;;;1929920;73;21471;-75
2020/12/26 02:22:58;;;;;;;7.60;4.28;;;-0.50;99.90;;;;;;1935732;73;21486;-74
2020/12/26 02:25:24;;;;;;;8.35;3.98;;;-0.40;99.90;;;;;;1934052;73;21491;-74
2020/12/26 02:27:50;;;;;;;14.33;5.00;;;-0.30;99.90;;;;;;1930919;73;21066;-73
2020/12/26 02:30:16;;;;;;;10.63;4.53;;;-0.30;99.90;;;;;;1937550;74;21106;-75
2020/12/26 02:32:43;;;;;;;16.07;4.92;;;-0.30;99.90;;;;;;1895472;75;21148;-74
2020/12/26 02:35:09;;;;;;;7.40;4.72;;;-0.30;99.90;;;;;;1931942;73;21132;-75
2020/12/26 02:37:35;;;;;;;7.80;4.92;;;-0.30;99.90;;;;;;1916057;73;21070;-73
2020/12/26 02:40:01;;;;;;;10.78;4.60;;;-0.30;99.90;;;;;;1886165;74;21044;-73
2020/12/26 02:42:27;;;;;;;9.23;4.70;;;-0.20;99.90;;;;;;1926172;74;21105;-74
2020/12/26 02:44:53;;;;;;;7.58;3.77;;;-0.20;99.90;;;;;;1932213;73;21055;-73
2020/12/26 02:47:19;;;;;;;9.48;4.95;;;-0.20;99.90;;;;;;1925033;74;21069;-73
2020/12/26 02:49:45;;;;;;;6.08;4.17;;;-0.20;99.90;;;;;;1927124;73;21150;-74
2020/12/26 02:52:12;;;;;;;7.78;4.30;;;-0.20;99.90;;;;;;1915689;73;21074;-73
2020/12/26 02:54:38;;;;;;;16.15;4.55;;;-0.10;99.90;;;;;;1926499;74;21062;-75
2020/12/26 02:57:04;;;;;;;6.53;4.22;;;-0.10;99.90;;;;;;1915554;72;21055;-72
2020/12/26 02:59:30;;;;;;;6.80;4.25;;;-0.10;99.90;;;;;;1897978;74;21075;-73
2020/12/26 03:01:56;;;;;;;9.45;4.67;;;-0.10;99.90;;;;;;1881496;75;21077;-74
2020/12/26 03:04:22;;;;;;;8.68;4.70;;;-0.10;99.90;;;;;;1927623;73;21547;-73
2020/12/26 03:06:48;;;;;;;5.35;3.72;;;-0.20;99.90;;;;;;1894997;74;21192;-73
2020/12/26 03:09:14;;;;;;;8.88;4.45;;;-0.10;99.90;;;;;;1905223;74;21497;-74
2020/12/26 03:11:41;;;;;;;6.47;4.37;;;-0.10;99.90;;;;;;1915348;74;21454;-75
2020/12/26 03:14:07;;;;;;;6.55;4.05;;;-0.10;99.90;;;;;;1913369;74;21470;-75
2020/12/26 03:16:33;;;;;;;7.03;4.10;;;0.10;99.90;;;;;;1909170;74;21076;-73
2020/12/26 03:18:59;;;;;;;5.67;3.72;;;0.20;99.90;;;;;;1893186;74;21069;-74
2020/12/26 03:21:25;;;;;;;9.90;5.00;;;0.30;99.90;;;;;;1900767;74;21085;-74
2020/12/26 03:23:51;;;;;;;5.87;4.10;;;0.30;99.90;;;;;;1899564;74;21143;-73
2020/12/26 03:26:17;;;;;;;9.98;4.85;;;0.30;99.90;;;;;;1885075;74;21047;-75
2020/12/26 03:28:43;;;;;;;11.88;5.05;;;0.30;99.90;;;;;;1875307;75;21065;-74
2020/12/26 03:31:10;;;;;;;6.93;4.53;;;0.30;99.90;;;;;;1913028;74;21066;-74
2020/12/26 03:33:36;;;;;;;8.98;5.45;;;0.30;99.90;;;;;;1893409;74;21483;-75
2020/12/26 03:36:02;;;;;;;8.10;4.37;;;0.20;99.90;;;;;;1897004;74;21482;-73
2020/12/26 03:38:28;;;;;;;9.13;5.28;;;0.20;99.90;;;;;;1894636;74;21579;-75
2020/12/26 03:40:54;;;;;;;7.03;4.33;;;0.10;99.90;;;;;;1887643;74;21078;-73
2020/12/26 03:43:20;;;;;;;6.42;5.00;;;0.00;99.90;;;;;;1884703;74;21079;-75
2020/12/26 03:45:46;;;;;;;8.30;4.78;;;0.00;99.90;;;;;;1945096;72;21074;-74
2020/12/26 03:48:12;;;;;;;7.17;4.78;;;0.10;99.90;;;;;;1937659;73;21039;-74
2020/12/26 03:50:39;;;;;;;8.98;5.47;;;0.10;99.90;;;;;;1924974;73;21070;-74
2020/12/26 03:53:05;;;;;;;10.40;4.97;;;0.00;99.90;;;;;;1880696;74;21082;-73
2020/12/26 03:55:31;;;;;;;6.50;4.70;;;0.00;99.90;;;;;;1930963;73;21132;-74
2020/12/26 03:57:57;;;;;;;9.73;5.45;;;0.00;99.90;;;;;;1929235;73;21139;-74
2020/12/26 04:00:23;;;;;;;12.23;4.87;;;0.00;99.90;;;;;;1893904;74;21083;-74
2020/12/26 04:02:49;;;;;;;8.05;5.42;;;0.00;99.90;;;;;;1929076;73;21043;-75
2020/12/26 04:05:15;;;;;;;6.78;5.12;;;0.10;99.90;;;;;;1922473;74;21066;-74
2020/12/26 04:07:42;;;;;;;9.08;4.80;;;0.00;99.90;;;;;;1915588;74;21074;-74
2020/12/26 04:10:08;;;;;;;8.13;4.90;;;0.00;99.90;;;;;;1912419;74;21204;-75
2020/12/26 04:12:34;;;;;;;8.73;5.30;;;0.00;99.90;;;;;;1910179;74;21250;-74
2020/12/26 04:15:00;;;;;;;8.98;5.53;;;0.00;99.90;;;;;;1921208;73;21066;-74
2020/12/26 04:17:26;;;;;;;5.95;4.58;;;0.00;99.90;;;;;;1929485;73;21063;-75
2020/12/26 04:19:52;;;;;;;8.23;5.53;;;0.10;99.90;;;;;;1924164;74;21071;-74
2020/12/26 04:22:18;;;;;;;7.33;5.03;;;0.10;99.90;;;;;;1942078;73;21133;-75
2020/12/26 04:24:44;;;;;;;7.30;4.40;;;0.20;99.90;;;;;;1898890;74;21042;-74
2020/12/26 04:27:11;;;;;;;7.35;4.62;;;0.10;99.90;;;;;;1877058;75;21070;-73
2020/12/26 04:29:37;;;;;;;8.20;5.25;;;0.20;99.90;;;;;;1893527;74;21047;-74
2020/12/26 04:32:03;;;;;;;8.50;5.70;;;0.20;99.90;;;;;;1899137;75;21079;-74
2020/12/26 04:34:29;;;;;;;9.10;5.10;;;0.10;99.90;;;;;;1917828;74;21066;-75
2020/12/26 04:36:55;;;;;;;8.90;5.35;;;0.10;99.90;;;;;;1899695;74;21152;-75
2020/12/26 04:39:21;;;;;;;8.53;4.60;;;0.10;99.90;;;;;;1917558;73;21140;-72
2020/12/26 04:41:47;;;;;;;13.00;5.05;;;0.20;99.90;;;;;;1893095;75;21183;-74
2020/12/26 04:44:13;;;;;;;7.50;5.20;;;0.20;99.90;;;;;;1927460;73;21061;-74
2020/12/26 04:46:40;;;;;;;10.68;5.08;;;0.20;99.90;;;;;;1929179;73;21035;-75
2020/12/26 04:49:06;;;;;;;12.88;5.05;;;0.20;99.90;;;;;;1885412;75;21059;-74
2020/12/26 04:51:33;;;;;;;12.33;5.75;;;0.20;99.90;;;;;;1921145;74;21140;-74
2020/12/26 04:53:59;;;;;;;8.15;5.05;;;0.20;99.90;;;;;;1922445;73;21132;-73
2020/12/26 04:56:25;;;;;;;6.60;4.53;;;0.30;99.90;;;;;;1899524;75;21242;-74
2020/12/26 04:58:51;;;;;;;8.10;4.97;;;0.30;99.90;;;;;;1917466;74;21192;-74
2020/12/26 05:01:17;;;;;;;11.57;5.62;;;0.30;99.90;;;;;;1918420;74;21574;-73
2020/12/26 05:03:43;;;;;;;8.75;5.62;;;0.40;99.90;;;;;;1890733;74;21459;-74
2020/12/26 05:06:09;;;;;;;6.65;5.20;;;0.30;99.90;;;;;;1921009;74;21500;-74
2020/12/26 05:08:36;;;;;;;10.65;5.72;;;0.40;99.90;;;;;;1927821;73;21031;-74
2020/12/26 05:11:02;;;;;;;9.18;5.40;;;0.40;99.90;;;;;;1897785;75;21129;-74
2020/12/26 05:13:28;;;;;;;8.98;4.97;;;0.30;99.90;;;;;;1925172;73;21200;-74
2020/12/26 05:15:54;;;;;;;6.95;5.17;;;0.30;99.90;;;;;;1918864;73;21105;-74
2020/12/26 05:18:20;;;;;;;9.07;5.00;;;0.40;99.90;;;;;;1928705;73;21074;-73
2020/12/26 05:20:46;;;;;;;6.42;4.53;;;0.40;99.90;;;;;;1919012;74;21063;-73
2020/12/26 05:23:12;;;;;;;5.75;4.65;;;0.40;99.90;;;;;;1899243;74;21042;-74
2020/12/26 05:25:38;;;;;;;9.78;5.85;;;0.40;99.90;;;;;;1915782;72;21039;-74
2020/12/26 05:28:05;;;;;;;8.55;5.03;;;0.40;99.90;;;;;;1913993;74;21071;-74
2020/12/26 05:30:31;;;;;;;9.10;5.90;;;0.40;99.90;;;;;;1887226;75;21074;-74
2020/12/26 05:32:57;;;;;;;9.68;4.72;;;0.50;99.90;;;;;;1933557;73;21082;-74
2020/12/26 05:35:23;;;;;;;10.23;4.97;;;0.60;99.90;;;;;;1892045;74;21078;-74
2020/12/26 05:37:49;;;;;;;10.85;5.25;;;0.60;99.90;;;;;;1901991;74;21499;-73
2020/12/26 05:40:15;;;;;;;7.42;5.03;;;0.50;99.90;;;;;;1900456;73;21451;-75
2020/12/26 05:42:41;;;;;;;10.82;5.83;;;0.50;99.90;;;;;;1902552;74;21549;-74
2020/12/26 05:45:07;;;;;;;8.80;5.22;;;0.60;99.90;;;;;;1887607;74;21128;-73
2020/12/26 05:47:34;;;;;;;12.18;5.40;;;0.60;99.90;;;;;;1898990;73;21062;-74
2020/12/26 05:50:00;;;;;;;9.23;5.25;;;0.50;99.90;;;;;;1899233;73;21164;-74
2020/12/26 05:52:26;;;;;;;10.58;5.78;;;0.50;99.90;;;;;;1907969;74;21074;-74
2020/12/26 05:54:52;;;;;;;16.35;4.90;;;0.50;99.90;;;;;;1902530;74;21086;-75
2020/12/26 05:57:18;;;;;;;7.55;4.97;;;0.50;99.90;;;;;;1892866;74;21193;-75
2020/12/26 05:59:44;;;;;;;9.43;5.28;;;0.50;99.90;;;;;;1898612;74;21051;-75
2020/12/26 06:02:10;;;;;;;6.37;4.72;;;0.50;99.90;;;;;;1905386;73;21548;-74
2020/12/26 06:04:38;;;;;;;6.15;4.62;;;0.50;99.90;;;;;;1903025;74;21536;-74
2020/12/26 06:07:04;;;;;;;9.03;5.75;;;0.50;99.90;;;;;;1897677;73;21218;-74
2020/12/26 06:09:30;;;;;;;7.75;5.05;;;0.40;99.90;;;;;;1888302;74;21273;-74
2020/12/26 06:11:56;;;;;;;9.48;5.53;;;0.40;99.90;;;;;;1897239;74;21203;-75
2020/12/26 06:14:23;;;;;;;11.48;6.17;;;0.40;99.90;;;;;;1899345;74;21475;-75
2020/12/26 06:16:49;;;;;;;10.38;5.42;;;0.40;99.90;;;;;;1887873;74;21439;-74
2020/12/26 06:19:15;;;;;;;9.08;5.62;;;0.50;99.90;;;;;;1888761;74;21047;-74
2020/12/26 06:21:41;;;;;;;12.05;5.83;;;0.50;99.90;;;;;;1909297;74;21074;-74
2020/12/26 06:24:07;;;;;;;10.50;6.10;;;0.50;99.90;;;;;;1907834;73;21086;-75
2020/12/26 06:26:33;;;;;;;8.78;5.30;;;0.40;99.90;;;;;;1903948;73;21069;-75
2020/12/26 06:29:00;;;;;;;7.53;5.20;;;0.40;99.90;;;;;;1889130;75;21131;-74
2020/12/26 06:31:26;;;;;;;9.80;5.75;;;0.30;99.90;;;;;;1902785;74;21087;-74
2020/12/26 06:33:52;;;;;;;7.08;4.75;;;0.30;99.90;;;;;;1890110;74;21148;-74
2020/12/26 06:36:18;;;;;;;13.08;5.50;;;0.30;99.90;;;;;;1904635;74;21416;-74
2020/12/26 06:38:44;;;;;;;14.18;6.67;;;0.30;99.90;;;;;;1902800;74;21478;-75
2020/12/26 06:41:10;;;;;;;9.60;5.40;;;0.30;99.90;;;;;;1889875;75;21501;-74
2020/12/26 06:43:36;;;;;;;11.78;5.55;;;0.30;99.90;;;;;;1888886;74;21505;-74
2020/12/26 06:46:02;;;;;;;9.38;6.25;;;0.40;99.90;;;;;;1895490;74;21081;-75
2020/12/26 06:48:28;;;;;;;10.70;5.95;;;0.40;99.90;;;;;;1883884;73;21067;-73
2020/12/26 06:50:55;;;;;;;9.03;5.60;;;0.40;99.90;;;;;;1889386;74;21042;-75
2020/12/26 06:53:21;;;;;;;12.33;5.40;;;0.40;99.90;;;;;;1895720;74;21075;-73
2020/12/26 06:55:50;;;;;;;17.45;6.08;;;0.40;99.90;;;;;;1893329;74;21206;-73
2020/12/26 06:58:15;;;;;;;10.40;5.97;;;0.40;99.90;;;;;;1892106;73;21077;-73
2020/12/26 07:00:41;;;;;;;11.33;6.53;;;0.40;99.90;;;;;;1886288;74;21156;-73
2020/12/26 07:03:07;;;;;;;10.35;5.67;;;0.40;99.90;;;;;;1886807;74;21139;-71
2020/12/26 07:05:33;;;;;;;9.23;5.90;;;0.40;99.90;;;;;;1894218;74;21042;-73
2020/12/26 07:07:59;;;;;;;10.63;5.60;;;0.40;99.90;;;;;;1885877;74;21090;-73
2020/12/26 07:10:25;;;;;;;9.03;5.95;;;0.50;99.90;;;;;;1881683;74;21116;-73
2020/12/26 07:12:51;;;;;;;10.13;5.67;;;0.50;99.90;;;;;;1889350;74;21147;-73
2020/12/26 07:15:17;;;;;;;11.57;6.55;;;0.60;99.90;;;;;;1892117;74;21131;-72
2020/12/26 07:17:44;;;;;;;10.10;5.70;;;0.50;99.90;;;;;;1885963;73;21071;-72
2020/12/26 07:20:10;;;;;;;10.85;6.35;;;0.50;99.90;;;;;;1894561;74;21270;-72
2020/12/26 07:22:36;;;;;;;15.72;5.92;;;0.50;99.90;;;;;;1889226;73;21262;-72
2020/12/26 07:25:02;;;;;;;10.65;5.47;;;0.50;99.90;;;;;;1896299;74;21143;-72
2020/12/26 07:27:28;;;;;;;13.00;6.85;;;0.50;99.90;;;;;;1904635;73;21188;-72
2020/12/26 07:29:54;;;;;;;9.83;6.30;;;0.60;99.90;;;;;;1890507;74;21070;-72
2020/12/26 07:32:20;;;;;;;8.78;5.35;;;0.50;99.90;;;;;;1887825;74;21085;-72
2020/12/26 07:34:46;;;;;;;13.28;5.80;;;0.60;99.90;;;;;;1901707;74;21071;-74
2020/12/26 07:37:13;;;;;;;13.30;6.33;;;0.60;99.90;;;;;;1916281;74;21050;-73
2020/12/26 07:39:39;;;;;;;13.35;6.25;;;0.70;99.90;;;;;;1893503;75;21140;-74
2020/12/26 07:42:05;;;;;;;9.80;5.70;;;0.60;99.90;;;;;;1905492;74;21146;-74
2020/12/26 07:44:31;;;;;;;12.45;5.10;;;0.70;99.90;;;;;;1897707;73;21136;-74
2020/12/26 07:46:57;;;;;;;14.93;6.50;;;0.70;99.90;;;;;;1898889;74;21090;-73
2020/12/26 07:49:23;;;;;;;11.57;6.08;;;0.70;99.90;;;;;;1896760;74;21139;-74
2020/12/26 07:51:49;;;;;;;8.70;5.33;;;0.60;99.90;;;;;;1909143;74;21051;-74
2020/12/26 07:54:15;;;;;;;10.38;5.60;;;0.70;99.90;;;;;;1882774;74;21581;-73
2020/12/26 07:56:42;;;;;;;17.17;5.87;;;0.90;99.90;;;;;;1894769;74;21467;-73
2020/12/26 07:59:08;;;;;;;9.38;5.35;;;0.80;99.90;;;;;;1907060;73;21493;-74
2020/12/26 08:01:34;;;;;;;9.00;4.90;;;0.90;99.90;;;;;;1891604;74;21062;-74
2020/12/26 08:04:04;;;;;;;13.75;6.42;;;1.00;99.90;;;;;;1884886;74;21078;-73
2020/12/26 08:06:28;;;;;;;11.25;5.12;;;1.20;99.90;;;;;;1901084;74;21550;-74
2020/12/26 08:08:54;;;;;;;11.97;5.62;;;1.10;99.90;;;;;;1892552;74;21443;-73
2020/12/26 08:11:20;;;;;;;12.40;5.35;;;1.10;99.90;;;;;;1891969;74;21478;-73
2020/12/26 08:13:46;;;;;;;6.90;4.95;;;1.20;99.90;;;;;;1896337;74;21147;-74
2020/12/26 08:16:12;;;;;;;10.08;4.83;;;1.20;99.90;;;;;;1901892;74;21151;-73
2020/12/26 08:18:38;;;;;;;9.70;5.22;;;1.20;99.90;;;;;;1884735;74;21195;-73
2020/12/26 08:21:06;;;;;;;8.65;4.72;;;1.30;99.90;;;;;;1912938;74;21079;-74
2020/12/26 08:23:33;;;;;;;10.03;5.40;;;1.30;99.90;;;;;;1886597;74;21082;-74
2020/12/26 08:25:59;;;;;;;13.35;5.42;;;1.30;99.90;;;;;;1903102;73;21079;-73
2020/12/26 08:28:25;;;;;;;7.25;4.50;;;1.40;99.90;;;;;;1905915;74;21043;-73
2020/12/26 08:30:51;;;;;;;11.10;4.95;;;1.50;99.90;;;;;;1895449;74;21509;-73
2020/12/26 08:33:17;;;;;;;8.03;4.58;;;1.60;99.90;;;;;;1899727;74;21485;-73
2020/12/26 08:35:43;;;;;;;12.30;5.60;;;1.70;99.90;;;;;;1899360;74;21089;-74
2020/12/26 08:38:10;;;;;;;9.00;4.95;;;1.80;99.90;;;;;;1900293;73;21257;-74
2020/12/26 08:40:36;;;;;;;11.45;5.33;;;1.80;99.90;;;;;;1894276;74;21078;-74
2020/12/26 08:43:02;;;;;;;9.00;5.10;;;1.80;99.90;;;;;;1888038;73;21135;-75
2020/12/26 08:45:28;;;;;;;9.93;4.95;;;1.90;99.90;;;;;;1895171;74;21203;-77
2020/12/26 08:47:55;;;;;;;8.43;5.35;;;1.80;99.90;;;;;;1891624;74;21531;-75
2020/12/26 08:50:21;;;;;;;12.33;5.25;;;1.70;99.90;;;;;;1904928;73;21127;-75
2020/12/26 08:52:47;;;;;;;8.95;4.85;;;1.80;99.90;;;;;;1894821;74;21523;-75
2020/12/26 08:55:14;;;;;;;8.98;4.90;;;2.00;99.90;;;;;;1904830;74;21070;-74
2020/12/26 08:57:40;;;;;;;6.80;5.12;;;2.20;99.90;;;;;;1902312;73;21067;-74
2020/12/26 09:00:06;;;;;;;9.55;4.92;;;2.40;99.90;;;;;;1902293;74;21069;-72
2020/12/26 09:02:32;;;;;;;9.00;4.90;;;2.20;99.90;;;;;;1902765;74;21074;-74
2020/12/26 09:04:58;;;;;;;10.45;4.87;;;2.30;99.90;;;;;;1899467;74;21143;-74
2020/12/26 09:07:24;;;;;;;7.08;4.47;;;2.40;99.90;;;;;;1912693;73;21085;-74
2020/12/26 09:09:50;;;;;;;7.20;4.70;;;2.70;99.90;;;;;;1905784;74;21069;-74
2020/12/26 09:12:16;;;;;;;7.95;4.70;;;2.70;99.90;;;;;;1893392;74;21087;-74
2020/12/26 09:14:43;;;;;;;7.40;4.75;;;2.60;99.90;;;;;;1888544;74;21031;-73
2020/12/26 09:17:09;;;;;;;7.42;4.03;;;2.70;99.90;;;;;;1885998;74;21587;-74
2020/12/26 09:19:36;;;;;;;11.22;4.17;;;2.90;99.90;;;;;;1884599;74;21164;-73
2020/12/26 09:22:02;;;;;;;6.20;4.42;;;3.30;99.90;;;;;;1901383;74;21050;-73
2020/12/26 09:24:28;;;;;;;7.17;4.62;;;3.50;99.90;;;;;;1906759;74;21061;-74
2020/12/26 09:26:54;;;;;;;8.08;4.75;;;3.60;99.90;;;;;;1901394;74;21086;-76
2020/12/26 09:29:20;;;;;;;13.32;4.87;;;3.40;99.90;;;;;;1890490;74;21494;-74
2020/12/26 09:31:46;;;;;;;9.83;4.55;;;3.30;99.90;;;;;;1897913;74;21882;-75
2020/12/26 09:34:12;;;;;;;6.30;3.77;;;3.00;99.90;;;;;;1903977;74;21378;-74
2020/12/26 09:36:39;;;;;;;5.25;3.72;;;3.30;99.90;;;;;;1890658;74;21078;-75
2020/12/26 09:39:05;;;;;;;6.28;4.25;;;3.40;99.90;;;;;;1903365;74;21046;-75
2020/12/26 09:41:31;;;;;;;7.03;4.08;;;3.50;99.90;;;;;;1904708;74;21196;-75
2020/12/26 09:43:57;;;;;;;10.58;4.65;;;3.50;99.90;;;;;;1907553;73;21117;-75
2020/12/26 09:46:23;;;;;;;8.63;4.05;;;3.50;99.90;;;;;;1895774;74;21467;-76
2020/12/26 09:48:49;;;;;;;6.50;4.35;;;3.60;99.90;;;;;;1903007;74;21159;-76
2020/12/26 09:51:15;;;;;;;8.18;4.60;;;3.60;99.90;;;;;;1896174;74;21074;-76
2020/12/26 09:53:41;;;;;;;7.17;4.75;;;3.60;99.90;;;;;;1901287;74;21136;-75
2020/12/26 09:56:09;;;;;;;12.68;4.25;;;3.90;99.90;;;;;;1903349;73;21050;-75
2020/12/26 09:58:35;;;;;;;5.53;3.72;;;4.10;99.90;;;;;;1889200;73;21177;-75
2020/12/26 10:01:01;;;;;;;5.17;4.10;;;4.60;99.90;;;;;;1904647;73;21082;-75
2020/12/26 10:03:27;;;;;;;9.00;4.25;;;4.90;99.90;;;;;;1902129;74;21078;-75
2020/12/26 10:05:53;;;;;;;7.87;4.35;;;4.90;99.90;;;;;;1892627;74;21078;-75
2020/12/26 10:08:19;;;;;;;5.37;4.08;;;4.70;99.90;;;;;;1903349;73;21148;-75
2020/12/26 10:10:46;;;;;;;9.73;5.00;;;4.90;99.90;;;;;;1901394;74;21077;-75
2020/12/26 10:13:12;;;;;;;5.55;3.62;;;4.70;99.90;;;;;;1890151;74;21157;-75
2020/12/26 10:15:38;;;;;;;4.00;3.45;;;4.60;99.90;;;;;;1891200;74;21191;-75
2020/12/26 10:18:04;;;;;;;6.47;3.70;;;4.70;99.90;;;;;;1890369;74;21148;-75
2020/12/26 10:20:30;;;;;;;4.55;3.08;;;4.40;99.90;;;;;;1903734;74;21490;-75
2020/12/26 10:22:56;;;;;;;4.95;3.42;;;4.30;99.90;;;;;;1904360;73;21536;-75
2020/12/26 10:25:24;;;;;;;7.00;3.90;;;4.20;99.90;;;;;;1888843;74;21494;-76
2020/12/26 10:27:50;;;;;;;6.33;3.92;;;4.20;99.90;;;;;;1924938;73;21079;-76
2020/12/26 10:30:17;;;;;;;6.80;3.30;;;4.00;99.90;;;;;;1931187;73;21047;-75
2020/12/26 10:32:43;;;;;;;7.22;3.08;;;4.40;99.90;;;;;;1895334;74;21082;-76
2020/12/26 10:35:10;;;;;;;6.50;3.22;;;4.40;99.90;;;;;;1921742;73;21062;-76
2020/12/26 10:37:36;;;;;;;9.23;4.05;;;4.60;99.90;;;;;;1891390;75;21070;-75
2020/12/26 10:40:02;;;;;;;8.58;3.83;;;4.50;99.90;;;;;;1919653;73;21135;-76
2020/12/26 10:42:28;;;;;;;7.70;3.63;;;4.30;99.90;;;;;;1915024;74;21074;-75
2020/12/26 10:44:54;;;;;;;5.62;2.95;;;4.40;99.90;;;;;;1918014;73;21165;-75
2020/12/26 10:47:20;;;;;;;9.45;4.17;;;4.60;99.90;;;;;;1922036;73;21198;-75
2020/12/26 10:49:46;;;;;;;9.35;4.22;;;4.70;99.90;;;;;;1930900;73;21498;-75
2020/12/26 10:52:12;;;;;;;5.60;3.40;;;4.90;99.90;;;;;;1926817;73;21491;-75
2020/12/26 10:54:38;;;;;;;5.65;2.80;;;4.90;99.90;;;;;;1934992;73;21471;-75
2020/12/26 10:57:05;;;;;;;6.15;3.50;;;4.60;99.90;;;;;;1928077;73;21062;-75
2020/12/26 10:59:31;;;;;;;8.60;3.33;;;4.50;99.90;;;;;;1898647;75;21082;-75
2020/12/26 11:01:57;;;;;;;8.23;3.20;;;4.30;99.90;;;;;;1938360;72;21158;-75
2020/12/26 11:04:23;;;;;;;5.12;3.00;;;4.20;99.90;;;;;;1924474;74;21192;-75
2020/12/26 11:06:49;;;;;;;3.67;2.90;;;4.40;99.90;;;;;;1890355;74;21078;-75
2020/12/26 11:09:15;;;;;;;4.33;2.70;;;4.60;99.90;;;;;;1940193;74;21139;-75
2020/12/26 11:11:41;;;;;;;6.28;2.80;;;4.20;99.90;;;;;;1933969;73;21074;-76
2020/12/26 11:14:08;;;;;;;3.85;2.20;;;4.30;99.90;;;;;;1895044;74;21617;-75
2020/12/26 11:16:34;;;;;;;4.30;2.80;;;4.40;99.90;;;;;;1942928;72;21553;-75
2020/12/26 11:19:00;;;;;;;10.20;3.80;;;4.50;99.90;;;;;;1919816;74;21533;-75
2020/12/26 11:21:26;;;;;;;6.05;3.02;;;4.50;99.90;;;;;;1891048;74;21047;-75
2020/12/26 11:23:52;;;;;;;3.52;2.40;;;4.80;99.90;;;;;;1930932;73;21082;-75
2020/12/26 11:26:18;;;;;;;9.13;2.30;;;4.80;99.90;;;;;;1919748;74;21066;-74
2020/12/26 11:28:44;;;;;;;3.70;2.35;;;4.70;99.90;;;;;;1885325;75;21086;-75
2020/12/26 11:31:10;;;;;;;5.05;2.27;;;4.70;99.90;;;;;;1925076;73;21124;-75
2020/12/26 11:33:37;;;;;;;3.42;2.62;;;4.90;99.90;;;;;;1919796;74;21077;-75
2020/12/26 11:36:03;;;;;;;3.83;2.52;;;5.20;99.90;;;;;;1901597;75;21501;-74
2020/12/26 11:38:29;;;;;;;4.58;2.42;;;5.00;99.90;;;;;;1946807;73;21573;-74
2020/12/26 11:40:55;;;;;;;2.72;1.82;;;4.90;99.90;;;;;;1932298;73;21439;-74
2020/12/26 11:43:22;;;;;;;3.42;2.35;;;4.70;99.90;;;;;;1895914;75;21156;-76
2020/12/26 11:45:49;;;;;;;4.72;2.02;;;4.70;99.90;;;;;;1926010;74;21070;-75
2020/12/26 11:48:15;;;;;;;11.50;2.43;;;4.90;99.90;;;;;;1919874;74;21156;-75
2020/12/26 11:50:41;;;;;;;3.42;2.65;;;4.70;99.90;;;;;;1897280;74;21087;-76
2020/12/26 11:53:07;;;;;;;6.95;2.25;;;4.70;99.90;;;;;;1942428;72;21470;-75
2020/12/26 11:55:33;;;;;;;3.87;2.40;;;4.80;99.90;;;;;;1936599;73;21474;-76
2020/12/26 11:57:59;;;;;;;8.25;2.40;;;5.00;99.90;;;;;;1885303;75;21435;-74
2020/12/26 12:00:25;;;;;;;3.08;2.00;;;5.10;99.90;;;;;;1937017;73;21065;-73
2020/12/26 12:02:52;;;;;;;11.60;2.37;;;4.80;99.90;;;;;;1936369;74;21189;-74
2020/12/26 12:05:18;;;;;;;2.72;2.00;;;5.00;99.90;;;;;;1895845;75;21070;-74
2020/12/26 12:07:44;;;;;;;5.00;2.10;;;5.10;99.90;;;;;;1920053;73;21205;-74
2020/12/26 12:10:10;;;;;;;2.00;1.62;;;4.90;99.90;;;;;;1926517;73;21125;-77
2020/12/26 12:12:36;;;;;;;8.88;2.33;;;5.00;99.90;;;;;;1893597;74;21086;-75
2020/12/26 12:15:02;;;;;;;7.12;3.02;;;4.80;99.90;;;;;;1934530;73;21082;-75
2020/12/26 12:17:28;;;;;;;3.83;1.95;;;4.90;99.90;;;;;;1939713;73;21423;-75
2020/12/26 12:19:54;;;;;;;2.30;1.75;;;5.40;99.90;;;;;;1896487;74;21645;-75
2020/12/26 12:22:20;;;;;;;1.92;1.55;;;5.60;99.90;;;;;;1933831;73;21556;-76
2020/12/26 12:24:47;;;;;;;5.80;1.90;;;5.90;99.90;;;;;;1922183;74;21062;-76
2020/12/26 12:27:13;;;;;;;3.37;1.75;;;6.30;99.90;;;;;;1896268;75;21074;-75
2020/12/26 12:29:39;;;;;;;5.10;2.00;;;6.90;99.90;;;;;;1919808;74;21110;-76
2020/12/26 12:32:05;;;;;;;4.30;2.02;;;7.30;99.90;;;;;;1919787;74;21083;-75
2020/12/26 12:34:31;;;;;;;2.47;2.10;;;7.20;99.90;;;;;;1893829;75;21172;-75
2020/12/26 12:36:57;;;;;;;3.27;1.82;;;6.90;99.90;;;;;;1934896;73;21074;-74
2020/12/26 12:39:23;;;;;;;6.85;1.65;;;6.50;99.90;;;;;;1925148;73;21074;-75
2020/12/26 12:41:49;;;;;;;3.90;1.70;;;6.40;99.90;;;;;;1889331;75;21082;-75
2020/12/26 12:44:16;;;;;;;2.33;1.67;;;5.70;99.90;;;;;;1921111;73;21078;-75
2020/12/26 12:46:42;;;;;;;4.35;2.02;;;5.80;99.90;;;;;;1939934;73;21039;-76